Time;durP1;ratioP1;P1;durP2;ratioP2;P2;SDS_P1;SDS_P2;PMS_P1;PMS_P2;Temp;Humidity;BMP_temperature;BMP_pressure;BME280_temperature;BME280_humidity;BME280_pressure;Samples;Min_cycle;Max_cycle;Signal;HPM_P1;HPM_P2
2024/02/18 00:00:13;;;;;;;9.65;3.70;;;;;;;11.14;100.00;103048.91;5111575;28;20044;-69
2024/02/18 00:03:01;;;;;;;14.93;4.07;;;;;;;11.14;100.00;103043.44;5114315;28;20051;-69
2024/02/18 00:05:49;;;;;;;7.57;3.55;;;;;;;11.15;100.00;103038.81;5115118;28;20043;-69
2024/02/18 00:08:37;;;;;;;8.25;3.30;;;;;;;11.14;100.00;103042.59;5101687;28;20419;-69
2024/02/18 00:11:25;;;;;;;8.55;3.20;;;;;;;11.13;100.00;103038.19;5081684;28;20630;-70
2024/02/18 00:14:13;;;;;;;12.77;3.90;;;;;;;11.13;100.00;103038.19;5058108;27;20091;-69
2024/02/18 00:17:02;;;;;;;10.05;3.40;;;;;;;11.11;100.00;103030.22;5119599;27;20043;-69
2024/02/18 00:19:50;;;;;;;8.57;3.58;;;;;;;11.12;100.00;103031.06;5111895;28;20047;-70
2024/02/18 00:22:38;;;;;;;10.70;3.50;;;;;;;11.13;100.00;103038.19;5094461;28;20132;-71
2024/02/18 00:25:26;;;;;;;9.75;3.25;;;;;;;11.13;100.00;103043.66;5104757;28;20415;-69
2024/02/18 00:28:14;;;;;;;8.07;3.90;;;;;;;11.12;100.00;103036.53;5098967;28;20039;-70
2024/02/18 00:31:02;;;;;;;7.30;3.38;;;;;;;11.12;100.00;103036.53;5098242;28;20181;-69
2024/02/18 00:33:50;;;;;;;9.38;3.90;;;;;;;11.08;100.00;103036.94;5098565;28;20132;-69
2024/02/18 00:36:39;;;;;;;7.15;3.00;;;;;;;11.11;100.00;103032.09;5128047;27;20180;-69
2024/02/18 00:39:27;;;;;;;9.43;3.20;;;;;;;11.11;100.00;103026.66;5084461;28;20502;-70
2024/02/18 00:42:15;;;;;;;9.57;3.65;;;;;;;11.08;100.00;103023.28;5098271;28;20052;-70
2024/02/18 00:45:03;;;;;;;9.75;3.25;;;;;;;11.05;100.00;103015.56;5114607;28;20075;-71
2024/02/18 00:47:51;;;;;;;9.27;3.42;;;;;;;11.06;100.00;103017.25;5079505;28;20560;-71
2024/02/18 00:50:40;;;;;;;10.38;3.90;;;;;;;11.03;100.00;103004.03;5078837;28;20046;-71
2024/02/18 00:53:28;;;;;;;9.00;3.45;;;;;;;11.02;100.00;103013.28;5080395;28;20089;-72
2024/02/18 00:56:16;;;;;;;6.65;2.97;;;;;;;11.01;100.00;103011.56;5085295;27;20430;-72
2024/02/18 00:59:04;;;;;;;11.15;4.15;;;;;;;11.01;100.00;103010.75;5114041;28;20044;-71
2024/02/18 01:01:52;;;;;;;10.30;3.78;;;;;;;11.00;100.00;103004.47;5083579;28;20492;-70
2024/02/18 01:04:40;;;;;;;9.82;4.03;;;;;;;10.99;100.00;103010.13;5114484;28;20044;-70
2024/02/18 01:07:28;;;;;;;13.90;4.35;;;;;;;10.99;100.00;103008.25;5109783;27;20047;-74
2024/02/18 01:10:16;;;;;;;9.80;3.53;;;;;;;10.97;100.00;103004.91;5093225;28;20523;-74
2024/02/18 01:13:04;;;;;;;11.30;4.22;;;;;;;10.96;100.00;102997.75;5113187;28;20515;-72
2024/02/18 01:15:52;;;;;;;12.30;4.90;;;;;;;10.94;100.00;102999.03;5100239;28;20067;-71
2024/02/18 01:18:41;;;;;;;11.75;4.10;;;;;;;10.93;100.00;102997.38;5127009;27;20047;-71
2024/02/18 01:21:29;;;;;;;9.27;3.55;;;;;;;10.94;100.00;102999.88;5084219;27;20043;-70
2024/02/18 01:24:17;;;;;;;11.23;4.03;;;;;;;10.95;100.00;102996.09;5095670;28;20055;-70
2024/02/18 01:27:05;;;;;;;10.68;4.43;;;;;;;10.95;100.00;102990.66;5085774;28;20498;-69
2024/02/18 01:29:53;;;;;;;12.07;4.50;;;;;;;10.92;100.00;102991.09;5097269;28;20541;-69
2024/02/18 01:32:41;;;;;;;9.35;3.88;;;;;;;10.94;100.00;102986.22;5069551;28;20097;-69
2024/02/18 01:35:30;;;;;;;9.02;3.67;;;;;;;10.96;100.00;102992.31;5113221;28;20051;-69
2024/02/18 01:38:18;;;;;;;11.82;4.15;;;;;;;11.00;100.00;102990.00;5125958;27;20131;-69
2024/02/18 01:41:07;;;;;;;7.95;3.58;;;;;;;11.02;100.00;102975.09;5116670;27;20416;-71
2024/02/18 01:43:54;;;;;;;10.07;4.15;;;;;;;10.98;100.00;102979.28;5077178;28;20169;-70
2024/02/18 01:46:43;;;;;;;9.93;3.92;;;;;;;10.96;100.00;102973.22;5083594;27;20122;-69
2024/02/18 01:49:33;;;;;;;9.27;3.67;;;;;;;11.00;100.00;102973.63;5085240;28;20503;-71
2024/02/18 01:52:22;;;;;;;9.57;3.60;;;;;;;10.99;100.00;102966.47;5113392;28;20046;-71
2024/02/18 01:55:12;;;;;;;12.23;4.30;;;;;;;10.96;100.00;102962.28;5097411;28;20035;-69
2024/02/18 01:58:01;;;;;;;13.23;4.97;;;;;;;10.94;100.00;102967.13;5076088;28;20121;-70
2024/02/18 02:00:50;;;;;;;10.55;3.30;;;;;;;10.95;100.00;102965.25;5090822;28;20044;-71
2024/02/18 02:03:38;;;;;;;12.38;3.80;;;;;;;10.95;100.00;102966.09;5083937;28;20055;-70
2024/02/18 02:06:30;;;;;;;7.00;3.28;;;;;;;10.97;100.00;102966.72;5112402;28;20189;-71
2024/02/18 02:09:18;;;;;;;7.88;3.30;;;;;;;10.97;100.00;102963.16;5099112;28;20423;-70
2024/02/18 02:12:06;;;;;;;10.68;3.55;;;;;;;10.96;100.00;102962.28;5064174;28;20043;-70
2024/02/18 02:14:54;;;;;;;9.23;3.80;;;;;;;10.95;100.00;102957.09;5074641;28;20044;-70
2024/02/18 02:17:42;;;;;;;10.70;3.85;;;;;;;10.93;100.00;102960.00;5113163;28;20126;-72
2024/02/18 02:20:30;;;;;;;10.32;3.92;;;;;;;10.95;100.00;102962.53;5077686;28;20040;-71
2024/02/18 02:23:18;;;;;;;8.80;3.80;;;;;;;10.90;100.00;102949.56;5090504;28;20104;-70
2024/02/18 02:26:08;;;;;;;9.75;3.97;;;;;;;10.91;100.00;102953.94;5088130;28;20047;-71
2024/02/18 02:29:03;;;;;;;8.27;3.35;;;;;;;10.93;100.00;102951.00;5080473;28;20161;-70
2024/02/18 02:31:51;;;;;;;12.13;5.07;;;;;;;10.93;100.00;102942.81;5112460;28;20055;-70
2024/02/18 02:34:42;;;;;;;9.73;4.57;;;;;;;10.91;100.00;102943.03;5097670;28;20054;-74
2024/02/18 02:37:30;;;;;;;10.90;3.80;;;;;;;10.92;100.00;102942.00;5077267;28;20044;-70
2024/02/18 02:40:18;;;;;;;8.77;3.17;;;;;;;10.92;100.00;102939.25;5088540;28;20116;-73
2024/02/18 02:43:06;;;;;;;10.85;3.85;;;;;;;10.92;100.00;102936.53;5071361;28;20052;-72
2024/02/18 02:45:54;;;;;;;8.38;3.63;;;;;;;10.91;100.00;102929.41;5079004;28;20051;-71
2024/02/18 02:48:42;;;;;;;11.68;3.47;;;;;;;10.91;100.00;102932.13;5119720;27;20499;-71
2024/02/18 02:51:31;;;;;;;8.68;3.50;;;;;;;10.89;100.00;102928.78;5087180;28;20051;-70
2024/02/18 02:54:19;;;;;;;12.02;3.42;;;;;;;10.88;100.00;102924.38;5098936;28;20431;-70
2024/02/18 02:57:07;;;;;;;10.43;3.55;;;;;;;10.88;100.00;102924.38;5071375;28;20044;-70
2024/02/18 02:59:55;;;;;;;11.63;3.50;;;;;;;10.88;100.00;102921.66;5109676;28;20043;-71
2024/02/18 03:02:43;;;;;;;12.80;3.60;;;;;;;10.86;100.00;102910.13;5101314;28;20047;-72
2024/02/18 03:05:31;;;;;;;9.35;3.75;;;;;;;10.86;100.00;102915.56;5111369;28;20528;-70
2024/02/18 03:08:19;;;;;;;9.27;3.60;;;;;;;10.86;100.00;102910.13;5083073;28;20054;-69
2024/02/18 03:11:09;;;;;;;8.20;3.00;;;;;;;10.84;100.00;102907.59;5096143;28;20043;-72
2024/02/18 03:13:57;;;;;;;6.93;3.10;;;;;;;10.84;100.00;102912.22;5096047;28;20036;-69
2024/02/18 03:16:45;;;;;;;8.82;3.30;;;;;;;10.83;100.00;102907.84;5103484;28;20127;-71
2024/02/18 03:19:33;;;;;;;7.55;2.90;;;;;;;10.84;100.00;102901.31;5090857;28;20089;-70
2024/02/18 03:22:23;;;;;;;8.43;2.90;;;;;;;10.82;100.00;102893.38;5057397;28;20056;-70
2024/02/18 03:25:11;;;;;;;10.02;3.67;;;;;;;10.84;100.00;102893.13;5057667;28;20044;-70
2024/02/18 03:28:00;;;;;;;9.77;3.40;;;;;;;10.85;100.00;102886.66;5042384;28;20078;-71
2024/02/18 03:30:51;;;;;;;10.10;3.35;;;;;;;10.84;100.00;102890.41;5093588;28;20043;-70
2024/02/18 03:33:39;;;;;;;10.77;3.50;;;;;;;10.84;100.00;102885.78;5080849;28;20049;-70
2024/02/18 03:36:27;;;;;;;9.70;3.40;;;;;;;10.82;100.00;102874.28;5071730;28;20048;-70
2024/02/18 03:39:16;;;;;;;9.43;3.60;;;;;;;10.81;100.00;102869.03;5087682;28;20072;-71
2024/02/18 03:42:07;;;;;;;10.32;3.00;;;;;;;10.79;100.00;102871.16;5086218;28;20032;-72
2024/02/18 03:44:56;;;;;;;7.50;3.03;;;;;;;10.80;100.00;102861.91;5114742;28;20063;-70
2024/02/18 03:47:44;;;;;;;7.55;2.90;;;;;;;10.82;100.00;102860.66;5101539;28;20115;-71
2024/02/18 03:50:32;;;;;;;7.35;2.78;;;;;;;10.82;100.00;102848.88;5117126;28;20048;-76
2024/02/18 03:53:20;;;;;;;7.65;3.08;;;;;;;10.82;100.00;102854.34;5106031;28;20096;-72
2024/02/18 03:56:08;;;;;;;6.95;2.70;;;;;;;10.84;100.00;102852.22;5097819;28;20080;-72
2024/02/18 03:58:59;;;;;;;7.40;2.80;;;;;;;10.85;100.00;102843.84;5080360;28;20066;-70
2024/02/18 04:01:48;;;;;;;8.82;2.80;;;;;;;10.85;100.00;102843.84;5067074;28;20492;-72
2024/02/18 04:04:36;;;;;;;8.73;3.20;;;;;;;10.87;100.00;102827.25;5061720;28;20048;-72
2024/02/18 04:07:24;;;;;;;10.88;3.30;;;;;;;10.90;100.00;102820.53;5079007;28;20048;-71
2024/02/18 04:10:12;;;;;;;7.75;3.00;;;;;;;10.90;100.00;102824.09;5095415;28;20135;-74
2024/02/18 04:13:02;;;;;;;7.95;3.17;;;;;;;10.94;100.00;102808.94;5096493;28;20050;-70
2024/02/18 04:15:50;;;;;;;6.28;2.55;;;;;;;10.94;100.00;102808.94;5109357;28;20174;-70
2024/02/18 04:18:38;;;;;;;8.68;3.38;;;;;;;10.93;100.00;102798.28;5080562;28;20051;-71
2024/02/18 04:21:26;;;;;;;6.30;2.75;;;;;;;10.94;100.00;102795.28;5092169;28;20056;-72
2024/02/18 04:24:14;;;;;;;7.05;2.70;;;;;;;10.93;100.00;102799.09;5074993;28;20063;-72
2024/02/18 04:27:11;;;;;;;10.23;2.75;;;;;;;10.88;100.00;102797.03;5087683;28;20045;-72
2024/02/18 04:29:59;;;;;;;8.85;2.95;;;;;;;10.90;100.00;102785.91;5080900;28;20136;-71
2024/02/18 04:32:47;;;;;;;5.82;2.90;;;;;;;10.90;100.00;102790.53;5067293;28;20044;-72
2024/02/18 04:35:35;;;;;;;6.75;2.55;;;;;;;10.89;100.00;102789.69;5078156;28;20055;-70
2024/02/18 04:38:23;;;;;;;6.50;2.90;;;;;;;10.85;100.00;102783.84;5095113;28;20045;-70
2024/02/18 04:41:13;;;;;;;8.57;2.97;;;;;;;10.88;100.00;102777.94;5079279;28;20036;-70
2024/02/18 04:44:01;;;;;;;8.25;2.83;;;;;;;10.86;100.00;102776.50;5079799;28;20044;-71
2024/02/18 04:46:49;;;;;;;7.00;2.60;;;;;;;10.85;100.00;102767.47;5079853;28;20040;-71
2024/02/18 04:49:37;;;;;;;6.57;2.40;;;;;;;10.84;100.00;102770.44;5079104;28;20044;-71
2024/02/18 04:52:26;;;;;;;5.38;2.63;;;;;;;10.87;100.00;102762.66;5079128;28;20085;-70
2024/02/18 04:55:14;;;;;;;7.75;3.03;;;;;;;10.85;100.00;102763.94;5059339;28;20054;-70
2024/02/18 04:58:02;;;;;;;6.38;2.55;;;;;;;10.93;100.00;102758.19;5078714;28;20441;-71
2024/02/18 05:00:50;;;;;;;9.40;3.03;;;;;;;10.83;100.00;102755.97;5066731;28;20051;-70
2024/02/18 05:03:41;;;;;;;8.82;3.03;;;;;;;10.86;100.00;102754.69;5094270;28;20048;-70
2024/02/18 05:06:29;;;;;;;9.15;2.75;;;;;;;10.82;100.00;102740.66;5044082;28;20177;-70
2024/02/18 05:09:17;;;;;;;8.02;3.00;;;;;;;10.74;100.00;102731.91;5074149;28;20053;-70
2024/02/18 05:12:06;;;;;;;10.27;3.10;;;;;;;10.70;100.00;102736.13;5072683;28;20084;-71
2024/02/18 05:14:54;;;;;;;6.93;2.75;;;;;;;10.71;100.00;102724.19;5090764;27;20051;-70
2024/02/18 05:17:42;;;;;;;8.43;3.30;;;;;;;10.74;100.00;102727.28;5080388;28;20044;-70
2024/02/18 05:20:30;;;;;;;7.40;3.13;;;;;;;10.73;100.00;102725.63;5113300;27;20396;-71
2024/02/18 05:23:18;;;;;;;11.95;3.60;;;;;;;10.76;100.00;102716.19;5064795;28;20178;-70
2024/02/18 05:26:07;;;;;;;9.10;3.00;;;;;;;10.74;100.00;102715.56;5093665;28;20052;-70
2024/02/18 05:28:55;;;;;;;10.35;3.30;;;;;;;10.73;100.00;102703.00;5077132;28;20523;-70
2024/02/18 05:31:43;;;;;;;9.63;2.50;;;;;;;10.77;100.00;102693.28;5102539;27;20036;-70
2024/02/18 05:34:31;;;;;;;6.03;2.60;;;;;;;10.66;100.00;102700.31;5098073;28;20574;-70
2024/02/18 05:37:19;;;;;;;8.25;2.95;;;;;;;10.63;100.00;102698.88;5098885;28;20055;-70
2024/02/18 05:40:08;;;;;;;9.63;2.88;;;;;;;10.66;100.00;102694.88;5112902;28;20126;-71
2024/02/18 05:42:57;;;;;;;9.05;3.28;;;;;;;10.71;100.00;102686.03;5079393;28;20048;-71
2024/02/18 05:45:45;;;;;;;8.52;3.10;;;;;;;10.78;100.00;102673.16;5078866;28;20439;-71
2024/02/18 05:48:33;;;;;;;3.70;2.05;;;;;;;10.79;100.00;102681.09;5092651;28;20063;-71
2024/02/18 05:51:21;;;;;;;8.40;2.85;;;;;;;10.79;100.00;102675.66;5080932;28;20507;-72
2024/02/18 05:54:09;;;;;;;8.60;2.92;;;;;;;10.73;100.00;102670.28;5090877;28;20622;-70
2024/02/18 05:56:57;;;;;;;7.43;2.63;;;;;;;10.70;100.00;102665.25;5104308;27;20040;-70
2024/02/18 05:59:45;;;;;;;8.75;2.90;;;;;;;10.64;100.00;102662.38;5095208;27;20504;-71
2024/02/18 06:02:33;;;;;;;11.90;3.70;;;;;;;10.56;100.00;102653.63;5117026;27;20039;-71
2024/02/18 06:05:21;;;;;;;10.90;3.70;;;;;;;10.37;100.00;102661.75;5107047;28;20079;-71
2024/02/18 06:08:09;;;;;;;12.48;3.90;;;;;;;10.29;100.00;102658.47;5113416;27;20043;-71
2024/02/18 06:10:57;;;;;;;9.80;3.53;;;;;;;10.23;100.00;102650.09;5083849;28;20518;-70
2024/02/18 06:13:45;;;;;;;13.68;4.18;;;;;;;10.20;100.00;102645.09;5098382;28;20043;-71
2024/02/18 06:16:33;;;;;;;10.25;3.08;;;;;;;10.33;100.00;102637.91;5098908;28;20036;-71
2024/02/18 06:19:21;;;;;;;9.18;3.20;;;;;;;10.43;100.00;102630.06;5072351;28;20063;-70
2024/02/18 06:22:09;;;;;;;11.05;3.50;;;;;;;10.48;100.00;102624.75;5078079;28;20542;-71
2024/02/18 06:24:58;;;;;;;5.13;2.20;;;;;;;10.52;100.00;102625.16;5096805;27;20054;-72
2024/02/18 06:27:47;;;;;;;8.75;3.03;;;;;;;10.47;100.00;102614.94;5098078;28;20404;-72
2024/02/18 06:30:36;;;;;;;8.00;2.97;;;;;;;10.41;100.00;102615.81;5093085;28;20047;-72
2024/02/18 06:33:24;;;;;;;7.40;2.80;;;;;;;10.45;100.00;102606.97;5097397;28;20036;-73
2024/02/18 06:36:13;;;;;;;7.15;2.78;;;;;;;10.47;100.00;102601.31;5069295;28;20044;-70
2024/02/18 06:39:01;;;;;;;11.57;3.30;;;;;;;10.59;100.00;102599.50;5087588;27;20126;-72
2024/02/18 06:41:50;;;;;;;8.73;3.05;;;;;;;10.52;100.00;102603.38;5118377;27;20419;-73
2024/02/18 06:44:38;;;;;;;8.60;2.72;;;;;;;10.53;100.00;102600.41;5119437;27;20040;-71
2024/02/18 06:47:26;;;;;;;8.75;2.78;;;;;;;10.60;100.00;102595.72;5084761;27;20118;-71
2024/02/18 06:50:15;;;;;;;5.47;2.28;;;;;;;10.63;100.00;102588.97;5111269;27;20054;-71
2024/02/18 06:53:05;;;;;;;6.07;2.33;;;;;;;10.64;100.00;102575.13;5097121;28;20120;-71
2024/02/18 06:55:53;;;;;;;8.60;2.97;;;;;;;10.58;100.00;102578.78;5097791;28;20184;-72
2024/02/18 06:58:41;;;;;;;6.28;2.75;;;;;;;10.72;100.00;102574.00;5110556;28;20048;-72
2024/02/18 07:01:29;;;;;;;9.35;2.80;;;;;;;10.59;100.00;102572.25;5110097;28;20039;-73
2024/02/18 07:04:17;;;;;;;10.45;3.00;;;;;;;10.68;100.00;102566.50;5111661;28;20177;-71
2024/02/18 07:07:06;;;;;;;6.72;2.50;;;;;;;10.70;100.00;102561.66;5112131;28;20050;-70
2024/02/18 07:09:54;;;;;;;11.10;3.15;;;;;;;10.74;100.00;102560.16;5070286;28;20040;-72
2024/02/18 07:12:42;;;;;;;5.43;2.75;;;;;;;10.71;100.00;102547.81;5096769;28;20040;-72
2024/02/18 07:15:30;;;;;;;4.03;2.28;;;;;;;10.73;100.00;102550.31;5070860;28;20063;-72
2024/02/18 07:18:18;;;;;;;6.20;2.03;;;;;;;10.80;100.00;102545.59;5098207;28;20093;-72
2024/02/18 07:21:06;;;;;;;7.88;2.30;;;;;;;10.69;100.00;102549.09;5083167;28;20032;-72
2024/02/18 07:23:54;;;;;;;10.13;3.15;;;;;;;10.69;100.00;102546.38;5111735;28;20040;-72
2024/02/18 07:26:42;;;;;;;4.05;2.10;;;;;;;10.84;100.00;102544.91;5128204;28;20050;-72
2024/02/18 07:29:30;;;;;;;6.68;2.72;;;;;;;10.88;100.00;102548.03;5115173;28;20124;-71
2024/02/18 07:32:18;;;;;;;7.47;2.70;;;;;;;10.69;100.00;102543.66;5131827;28;20047;-71
2024/02/18 07:35:07;;;;;;;7.13;3.10;;;;;;;10.56;100.00;102540.00;5114599;28;20119;-71
2024/02/18 07:37:58;;;;;;;9.05;2.72;;;;;;;10.65;100.00;102537.78;5095006;28;20408;-70
2024/02/18 07:40:46;;;;;;;12.75;3.72;;;;;;;10.23;100.00;102540.28;5063416;28;20080;-71
2024/02/18 07:43:35;;;;;;;10.55;3.13;;;;;;;10.08;100.00;102531.59;5094026;28;20412;-70
2024/02/18 07:46:23;;;;;;;15.15;3.78;;;;;;;9.98;100.00;102529.38;5126475;27;20502;-70
2024/02/18 07:49:13;;;;;;;9.35;3.17;;;;;;;9.94;100.00;102531.72;5113890;27;20047;-70
2024/02/18 07:52:01;;;;;;;9.73;3.28;;;;;;;9.95;100.00;102529.84;5101145;28;20054;-70
2024/02/18 07:54:49;;;;;;;9.82;3.05;;;;;;;9.97;100.00;102530.44;5126934;27;20484;-72
2024/02/18 07:57:41;;;;;;;11.77;3.55;;;;;;;9.96;100.00;102520.63;5117769;28;20040;-76
2024/02/18 08:00:29;;;;;;;10.95;3.50;;;;;;;9.97;100.00;102516.84;5120100;28;20043;-71
2024/02/18 08:03:17;;;;;;;16.50;3.85;;;;;;;9.95;100.00;102516.22;5125305;28;20499;-71
2024/02/18 08:06:08;;;;;;;39.13;8.63;;;;;;;10.18;100.00;102511.00;5145914;27;20072;-73
2024/02/18 08:08:56;;;;;;;39.90;10.70;;;;;;;10.66;100.00;102504.03;5129019;28;20047;-71
2024/02/18 08:11:45;;;;;;;43.80;12.05;;;;;;;10.56;100.00;102501.84;5132398;28;20047;-71
2024/02/18 08:14:33;;;;;;;24.95;6.43;;;;;;;10.57;100.00;102492.59;5095730;28;20056;-73
2024/02/18 08:17:21;;;;;;;17.33;5.00;;;;;;;10.53;100.00;102496.81;5101736;28;20048;-71
2024/02/18 08:20:10;;;;;;;21.65;5.13;;;;;;;10.51;100.00;102489.94;5101824;28;20078;-71
2024/02/18 08:22:58;;;;;;;13.32;4.15;;;;;;;10.52;100.00;102488.91;5093411;28;20134;-70
2024/02/18 08:25:46;;;;;;;14.75;4.18;;;;;;;10.55;100.00;102483.81;5080539;28;20044;-69
2024/02/18 08:28:34;;;;;;;20.55;5.25;;;;;;;10.79;100.00;102484.78;5095140;28;20102;-71
2024/02/18 08:31:22;;;;;;;12.70;3.85;;;;;;;10.74;100.00;102483.81;5094629;28;20052;-70
2024/02/18 08:34:11;;;;;;;14.57;4.35;;;;;;;10.75;100.00;102482.75;5081901;28;20094;-70
2024/02/18 08:36:59;;;;;;;13.18;4.15;;;;;;;10.76;100.00;102487.97;5115712;28;20491;-70
2024/02/18 08:39:48;;;;;;;19.55;5.43;;;;;;;10.84;100.00;102490.38;5115546;28;20500;-70
2024/02/18 08:42:36;;;;;;;13.60;3.95;;;;;;;10.75;100.00;102482.75;5087155;28;20048;-70
2024/02/18 08:45:24;;;;;;;12.95;4.40;;;;;;;10.69;100.00;102472.75;5100139;28;20081;-70
2024/02/18 08:48:13;;;;;;;11.15;3.92;;;;;;;10.63;100.00;102474.50;5100544;28;20039;-69
2024/02/18 08:51:01;;;;;;;13.43;4.30;;;;;;;10.79;100.00;102462.16;5098948;28;20112;-69
2024/02/18 08:53:49;;;;;;;16.08;3.95;;;;;;;10.75;100.00;102469.97;5112857;28;20380;-69
2024/02/18 08:56:38;;;;;;;11.02;3.67;;;;;;;10.60;100.00;102456.69;5099618;28;20044;-69
2024/02/18 08:59:26;;;;;;;13.90;4.07;;;;;;;10.64;100.00;102444.28;5123703;28;20048;-71
2024/02/18 09:02:14;;;;;;;13.25;3.88;;;;;;;10.66;100.00;102452.25;5120365;28;20074;-70
2024/02/18 09:05:02;;;;;;;10.38;3.58;;;;;;;10.55;100.00;102444.81;5105713;28;20301;-70
2024/02/18 09:07:50;;;;;;;8.43;2.85;;;;;;;10.59;100.00;102446.88;5116382;28;20044;-70
2024/02/18 09:10:38;;;;;;;12.38;4.25;;;;;;;10.58;100.00;102447.94;5119494;28;20071;-72
2024/02/18 09:13:26;;;;;;;12.35;3.72;;;;;;;10.50;100.00;102434.59;5116487;28;20074;-71
2024/02/18 09:16:14;;;;;;;10.65;3.60;;;;;;;10.63;100.00;102430.88;5098657;28;20083;-70
2024/02/18 09:19:02;;;;;;;13.77;3.85;;;;;;;10.42;100.00;102435.75;5099900;28;20127;-69
2024/02/18 09:21:50;;;;;;;7.95;3.15;;;;;;;10.33;100.00;102428.09;5115231;28;20096;-68
2024/02/18 09:24:41;;;;;;;9.68;3.58;;;;;;;10.32;100.00;102418.25;5115001;28;20519;-69
2024/02/18 09:27:29;;;;;;;9.55;3.40;;;;;;;10.48;100.00;102412.19;5097941;28;20177;-68
2024/02/18 09:30:17;;;;;;;9.02;3.20;;;;;;;10.43;100.00;102404.69;5113393;28;20130;-69
2024/02/18 09:33:07;;;;;;;13.00;3.40;;;;;;;10.32;100.00;102410.06;5084678;28;20051;-68
2024/02/18 09:35:55;;;;;;;15.07;4.15;;;;;;;10.49;100.00;102399.44;5077494;28;20052;-70
2024/02/18 09:38:43;;;;;;;11.70;3.83;;;;;;;10.72;100.00;102402.25;5092871;28;20061;-69
2024/02/18 09:41:32;;;;;;;10.40;3.10;;;;;;;10.80;100.00;102392.91;5092907;28;20127;-70
2024/02/18 09:44:22;;;;;;;11.35;3.30;;;;;;;10.56;100.00;102391.97;5111177;28;20048;-70
2024/02/18 09:47:12;;;;;;;9.93;3.45;;;;;;;10.38;100.00;102384.66;5098450;28;20039;-70
2024/02/18 09:50:01;;;;;;;9.63;3.25;;;;;;;10.44;100.00;102381.03;5113002;28;20066;-69
2024/02/18 09:52:50;;;;;;;8.43;3.20;;;;;;;10.36;100.00;102387.59;5084047;28;20146;-70
2024/02/18 09:55:38;;;;;;;11.60;3.25;;;;;;;10.74;100.00;102378.31;5112625;28;20048;-70
2024/02/18 09:58:28;;;;;;;6.70;2.60;;;;;;;10.96;100.00;102365.00;5112480;28;20105;-70
2024/02/18 10:01:19;;;;;;;11.07;2.90;;;;;;;10.77;100.00;102364.22;5099588;28;20047;-70
2024/02/18 10:04:08;;;;;;;8.02;3.15;;;;;;;11.01;100.00;102356.94;5111640;28;20407;-70
2024/02/18 10:06:56;;;;;;;7.82;2.70;;;;;;;10.73;100.00;102354.03;5083306;28;20131;-69
2024/02/18 10:09:44;;;;;;;8.65;2.90;;;;;;;10.83;100.00;102355.13;5112804;28;20053;-69
2024/02/18 10:12:33;;;;;;;5.68;2.60;;;;;;;10.56;100.00;102349.22;5098722;28;20523;-69
2024/02/18 10:15:22;;;;;;;10.05;3.15;;;;;;;10.48;100.00;102344.06;5099077;28;20055;-69
2024/02/18 10:18:09;;;;;;;9.60;2.80;;;;;;;10.44;100.00;102331.97;5112137;28;20051;-70
2024/02/18 10:20:59;;;;;;;10.27;2.42;;;;;;;10.35;100.00;102322.47;5112673;28;20039;-69
2024/02/18 10:23:49;;;;;;;8.68;2.60;;;;;;;10.23;100.00;102312.28;5098875;28;20173;-69
2024/02/18 10:26:38;;;;;;;8.80;3.08;;;;;;;10.20;100.00;102312.75;5079197;28;20036;-70
2024/02/18 10:29:26;;;;;;;8.50;2.70;;;;;;;10.36;100.00;102310.47;5091337;28;20067;-69
2024/02/18 10:32:15;;;;;;;7.07;2.75;;;;;;;10.56;100.00;102307.47;5077354;28;20062;-70
2024/02/18 10:35:05;;;;;;;10.57;3.13;;;;;;;10.66;100.00;102307.78;5096138;28;20531;-70
2024/02/18 10:37:56;;;;;;;7.25;2.55;;;;;;;10.64;100.00;102299.81;5111857;28;20118;-71
2024/02/18 10:40:48;;;;;;;8.07;2.75;;;;;;;10.67;100.00;102301.25;5098393;28;20112;-70
2024/02/18 10:43:44;;;;;;;7.43;2.60;;;;;;;10.64;100.00;102299.81;5111469;28;20126;-70
2024/02/18 10:46:33;;;;;;;9.45;3.00;;;;;;;10.55;100.00;102295.75;5111536;28;20051;-69
2024/02/18 10:49:27;;;;;;;9.13;2.72;;;;;;;10.62;100.00;102274.69;5110515;28;20043;-71
2024/02/18 10:52:25;;;;;;;5.32;2.45;;;;;;;10.57;100.00;102288.19;5098755;28;20055;-69
2024/02/18 10:55:29;;;;;;;7.50;3.05;;;;;;;10.56;100.00;102262.00;5096742;28;20032;-70
2024/02/18 10:58:26;;;;;;;5.60;2.53;;;;;;;10.63;100.00;102257.28;5111164;28;20043;-70
2024/02/18 11:01:17;;;;;;;5.85;2.30;;;;;;;10.88;100.00;102256.25;5083516;28;20093;-70
2024/02/18 11:04:07;;;;;;;5.85;2.63;;;;;;;10.95;100.00;102242.53;5110955;28;20044;-71
2024/02/18 11:06:57;;;;;;;6.20;2.28;;;;;;;10.88;100.00;102259.00;5092625;28;20056;-70
2024/02/18 11:09:46;;;;;;;8.27;2.72;;;;;;;10.81;100.00;102252.81;5064893;28;20122;-69
2024/02/18 11:12:34;;;;;;;4.78;2.00;;;;;;;10.90;100.00;102235.03;5091126;28;20123;-70
2024/02/18 11:15:22;;;;;;;11.25;2.72;;;;;;;10.80;100.00;102226.59;5089796;28;20173;-70
2024/02/18 11:18:10;;;;;;;8.80;2.50;;;;;;;10.57;100.00;102220.03;5111264;28;20039;-70
2024/02/18 11:21:02;;;;;;;6.15;2.33;;;;;;;10.54;100.00;102214.25;5110608;28;20040;-70
2024/02/18 11:23:56;;;;;;;6.57;2.75;;;;;;;10.43;100.00;102208.50;5096981;28;20043;-69
2024/02/18 11:26:45;;;;;;;6.00;1.90;;;;;;;10.65;100.00;102197.91;5091732;28;20043;-70
2024/02/18 11:29:43;;;;;;;7.28;2.50;;;;;;;10.52;100.00;102189.94;5076103;28;20040;-70
2024/02/18 11:32:31;;;;;;;4.47;2.10;;;;;;;10.53;100.00;102171.69;5065225;28;20568;-70
2024/02/18 11:35:19;;;;;;;5.90;2.30;;;;;;;10.65;100.00;102158.91;5105213;28;20039;-70
2024/02/18 11:38:08;;;;;;;3.88;1.80;;;;;;;10.71;100.00;102160.69;5111124;28;20500;-70
2024/02/18 11:40:56;;;;;;;4.70;2.33;;;;;;;10.63;100.00;102153.72;5111998;28;20118;-69
2024/02/18 11:43:53;;;;;;;11.60;2.70;;;;;;;10.59;100.00;102132.59;5097275;28;20483;-69
2024/02/18 11:46:43;;;;;;;9.00;3.00;;;;;;;10.16;100.00;102136.41;5087277;28;20048;-70
2024/02/18 11:49:31;;;;;;;9.20;2.95;;;;;;;9.85;100.00;102130.16;5090047;28;20036;-70
2024/02/18 11:52:19;;;;;;;6.57;2.58;;;;;;;9.65;100.00;102130.41;5091173;28;20055;-70
2024/02/18 11:55:17;;;;;;;6.75;2.55;;;;;;;9.58;100.00;102114.19;5115366;28;20044;-70
2024/02/18 11:58:05;;;;;;;8.77;3.08;;;;;;;9.57;100.00;102112.53;5105369;28;20039;-71
2024/02/18 12:00:53;;;;;;;10.73;4.35;;;;;;;9.74;100.00;102107.28;5076117;28;20388;-71
2024/02/18 12:03:46;;;;;;;13.90;5.38;;;;;;;9.91;100.00;102091.13;5119052;28;20050;-72
2024/02/18 12:06:34;;;;;;;51.45;30.73;;;;;;;10.03;100.00;102082.97;5090418;28;20514;-70
2024/02/18 12:09:25;;;;;;;80.00;42.80;;;;;;;10.16;100.00;102074.59;5111969;28;20036;-74
2024/02/18 12:12:14;;;;;;;145.75;80.53;;;;;;;10.31;100.00;102067.88;5116546;28;20035;-71
2024/02/18 12:15:03;;;;;;;185.18;110.70;;;;;;;10.60;100.00;102060.66;5087357;28;20487;-69
2024/02/18 12:17:54;;;;;;;204.25;121.90;;;;;;;10.65;100.00;102045.28;5080102;28;20052;-70
2024/02/18 12:20:48;;;;;;;177.07;107.50;;;;;;;10.54;100.00;102046.09;5098602;28;20048;-67
2024/02/18 12:23:41;;;;;;;228.98;140.35;;;;;;;10.59;100.00;102037.22;4394063;28;9999960;-74
2024/02/18 12:26:30;;;;;;;316.10;197.93;;;;;;;10.59;100.00;102035.31;5095323;28;20423;-71
2024/02/18 12:29:18;;;;;;;331.50;206.88;;;;;;;11.00;100.00;102028.00;5129164;27;20086;-71
2024/02/18 12:32:07;;;;;;;210.80;134.00;;;;;;;10.78;100.00;102018.81;5110415;27;20131;-73
2024/02/18 12:34:55;;;;;;;355.63;214.77;;;;;;;10.61;100.00;102002.38;5098845;28;20120;-74
2024/02/18 12:37:43;;;;;;;407.77;259.10;;;;;;;10.84;100.00;101996.03;5055702;27;20047;-72
2024/02/18 12:40:35;;;;;;;267.13;171.48;;;;;;;10.78;100.00;102003.28;5069090;28;20063;-71
2024/02/18 12:43:28;;;;;;;288.15;188.38;;;;;;;10.84;100.00;102012.41;5082748;28;20043;-72
2024/02/18 12:46:36;;;;;;;207.32;129.05;;;;;;;10.71;100.00;102008.03;5112184;28;20051;-70
2024/02/18 12:49:28;;;;;;;272.73;162.98;;;;;;;10.65;100.00;102004.41;5077341;28;20048;-72